Terminal Aerodrome Forecast
Issued by NWS

Home | Current Version | Previous Version | Text Only | Print | Product List | Glossary On
Versions: 1 2 3 4 5 6 7 8 9 10 11 12
873
FTUS45 KTFX 231131
TAFHVR
TAF
KHVR 231131Z 2312/2412 VRB05KT P6SM SKC
      TEMPO 2320/2324 24007KT
     FM240200 09008KT P6SM SCT200=

USA.gov is the U.S. government's official web portal to all federal, state and local government web resources and services.